sensor_id;sensor_type;location;lat;lon;timestamp;P1;durP1;ratioP1;P2;durP2;ratioP2
18947;SDS011;9607;51.600;7.558;2023-02-15T00:00:25;14.18;;;9.35;;
18947;SDS011;9607;51.600;7.558;2023-02-15T00:02:53;15.25;;;9.93;;
18947;SDS011;9607;51.600;7.558;2023-02-15T00:05:20;16.23;;;10.43;;
18947;SDS011;9607;51.600;7.558;2023-02-15T00:07:46;20.77;;;13.43;;
18947;SDS011;9607;51.600;7.558;2023-02-15T00:10:13;22.02;;;12.65;;
18947;SDS011;9607;51.600;7.558;2023-02-15T00:12:40;21.08;;;11.93;;
18947;SDS011;9607;51.600;7.558;2023-02-15T00:15:08;17.33;;;11.15;;
18947;SDS011;9607;51.600;7.558;2023-02-15T00:17:36;16.58;;;10.85;;
18947;SDS011;9607;51.600;7.558;2023-02-15T00:20:05;15.45;;;10.35;;
18947;SDS011;9607;51.600;7.558;2023-02-15T00:22:32;15.27;;;10.10;;
18947;SDS011;9607;51.600;7.558;2023-02-15T00:24:59;17.30;;;11.38;;
18947;SDS011;9607;51.600;7.558;2023-02-15T00:27:26;17.30;;;11.10;;
18947;SDS011;9607;51.600;7.558;2023-02-15T00:29:53;15.48;;;11.60;;
18947;SDS011;9607;51.600;7.558;2023-02-15T00:32:20;15.77;;;11.30;;
18947;SDS011;9607;51.600;7.558;2023-02-15T00:34:46;15.95;;;11.02;;
18947;SDS011;9607;51.600;7.558;2023-02-15T00:37:14;17.70;;;11.80;;
18947;SDS011;9607;51.600;7.558;2023-02-15T00:39:41;19.85;;;13.85;;
18947;SDS011;9607;51.600;7.558;2023-02-15T00:42:08;21.67;;;13.57;;
18947;SDS011;9607;51.600;7.558;2023-02-15T00:44:35;21.70;;;14.90;;
18947;SDS011;9607;51.600;7.558;2023-02-15T00:47:03;22.10;;;15.20;;
18947;SDS011;9607;51.600;7.558;2023-02-15T00:49:29;21.38;;;14.50;;
18947;SDS011;9607;51.600;7.558;2023-02-15T00:51:56;21.00;;;14.15;;
18947;SDS011;9607;51.600;7.558;2023-02-15T00:54:24;18.27;;;13.43;;
18947;SDS011;9607;51.600;7.558;2023-02-15T00:56:52;20.02;;;13.07;;
18947;SDS011;9607;51.600;7.558;2023-02-15T00:59:19;19.25;;;12.88;;
18947;SDS011;9607;51.600;7.558;2023-02-15T01:01:45;16.60;;;12.10;;
18947;SDS011;9607;51.600;7.558;2023-02-15T01:04:12;16.00;;;10.98;;
18947;SDS011;9607;51.600;7.558;2023-02-15T01:06:40;16.75;;;11.20;;
18947;SDS011;9607;51.600;7.558;2023-02-15T01:09:06;16.75;;;10.80;;
18947;SDS011;9607;51.600;7.558;2023-02-15T01:11:34;15.65;;;10.30;;
18947;SDS011;9607;51.600;7.558;2023-02-15T01:14:01;14.93;;;10.50;;
18947;SDS011;9607;51.600;7.558;2023-02-15T01:16:29;14.43;;;9.70;;
18947;SDS011;9607;51.600;7.558;2023-02-15T01:18:55;13.93;;;9.73;;
18947;SDS011;9607;51.600;7.558;2023-02-15T01:21:23;17.90;;;12.05;;
18947;SDS011;9607;51.600;7.558;2023-02-15T01:23:51;17.08;;;12.52;;
18947;SDS011;9607;51.600;7.558;2023-02-15T01:26:18;17.85;;;12.52;;
18947;SDS011;9607;51.600;7.558;2023-02-15T01:28:46;16.05;;;11.55;;
18947;SDS011;9607;51.600;7.558;2023-02-15T01:31:14;17.55;;;11.75;;
18947;SDS011;9607;51.600;7.558;2023-02-15T01:33:43;16.02;;;11.52;;
18947;SDS011;9607;51.600;7.558;2023-02-15T01:36:09;18.25;;;12.20;;
18947;SDS011;9607;51.600;7.558;2023-02-15T01:38:36;21.63;;;13.30;;
18947;SDS011;9607;51.600;7.558;2023-02-15T01:41:05;19.75;;;12.63;;
18947;SDS011;9607;51.600;7.558;2023-02-15T01:43:50;19.42;;;12.88;;
18947;SDS011;9607;51.600;7.558;2023-02-15T01:46:20;20.08;;;12.98;;
18947;SDS011;9607;51.600;7.558;2023-02-15T01:48:52;22.10;;;14.07;;
18947;SDS011;9607;51.600;7.558;2023-02-15T01:51:23;20.40;;;13.18;;
18947;SDS011;9607;51.600;7.558;2023-02-15T01:53:53;21.38;;;14.73;;
18947;SDS011;9607;51.600;7.558;2023-02-15T01:56:25;20.75;;;13.52;;
18947;SDS011;9607;51.600;7.558;2023-02-15T01:58:57;18.35;;;12.38;;
18947;SDS011;9607;51.600;7.558;2023-02-15T02:01:28;18.60;;;13.07;;
18947;SDS011;9607;51.600;7.558;2023-02-15T02:03:56;22.88;;;15.68;;
18947;SDS011;9607;51.600;7.558;2023-02-15T02:06:28;21.73;;;13.60;;
18947;SDS011;9607;51.600;7.558;2023-02-15T02:08:55;20.10;;;14.05;;
18947;SDS011;9607;51.600;7.558;2023-02-15T02:11:23;20.55;;;13.55;;
18947;SDS011;9607;51.600;7.558;2023-02-15T02:13:50;18.05;;;12.07;;
18947;SDS011;9607;51.600;7.558;2023-02-15T02:16:21;16.63;;;12.15;;
18947;SDS011;9607;51.600;7.558;2023-02-15T02:18:57;16.58;;;12.25;;
18947;SDS011;9607;51.600;7.558;2023-02-15T02:21:53;15.70;;;11.00;;
18947;SDS011;9607;51.600;7.558;2023-02-15T02:24:48;16.90;;;11.00;;
18947;SDS011;9607;51.600;7.558;2023-02-15T02:27:36;15.95;;;11.00;;
18947;SDS011;9607;51.600;7.558;2023-02-15T02:36:10;28.38;;;16.50;;
18947;SDS011;9607;51.600;7.558;2023-02-15T02:38:45;22.05;;;15.13;;
18947;SDS011;9607;51.600;7.558;2023-02-15T02:41:22;21.88;;;14.38;;
18947;SDS011;9607;51.600;7.558;2023-02-15T02:43:59;24.08;;;15.50;;
18947;SDS011;9607;51.600;7.558;2023-02-15T02:46:32;27.65;;;15.63;;
18947;SDS011;9607;51.600;7.558;2023-02-15T02:49:04;21.58;;;14.55;;
18947;SDS011;9607;51.600;7.558;2023-02-15T02:51:31;18.48;;;13.93;;
18947;SDS011;9607;51.600;7.558;2023-02-15T02:53:59;21.48;;;13.52;;
18947;SDS011;9607;51.600;7.558;2023-02-15T02:56:33;27.92;;;16.85;;
18947;SDS011;9607;51.600;7.558;2023-02-15T02:59:04;25.30;;;16.42;;
18947;SDS011;9607;51.600;7.558;2023-02-15T03:01:37;33.85;;;21.77;;
18947;SDS011;9607;51.600;7.558;2023-02-15T03:04:08;30.63;;;17.88;;
18947;SDS011;9607;51.600;7.558;2023-02-15T03:06:39;25.65;;;16.98;;
18947;SDS011;9607;51.600;7.558;2023-02-15T03:09:12;24.90;;;15.88;;
18947;SDS011;9607;51.600;7.558;2023-02-15T03:11:44;19.85;;;13.55;;
18947;SDS011;9607;51.600;7.558;2023-02-15T03:14:12;19.77;;;13.25;;
18947;SDS011;9607;51.600;7.558;2023-02-15T03:16:40;19.80;;;13.27;;
18947;SDS011;9607;51.600;7.558;2023-02-15T03:19:11;20.08;;;13.30;;
18947;SDS011;9607;51.600;7.558;2023-02-15T03:21:42;16.80;;;11.98;;
18947;SDS011;9607;51.600;7.558;2023-02-15T03:24:22;19.67;;;13.15;;
18947;SDS011;9607;51.600;7.558;2023-02-15T03:26:51;26.42;;;16.23;;
18947;SDS011;9607;51.600;7.558;2023-02-15T03:29:21;23.50;;;14.95;;
18947;SDS011;9607;51.600;7.558;2023-02-15T03:31:53;26.10;;;16.45;;
18947;SDS011;9607;51.600;7.558;2023-02-15T03:34:25;20.58;;;13.90;;
18947;SDS011;9607;51.600;7.558;2023-02-15T03:36:58;21.23;;;14.13;;
18947;SDS011;9607;51.600;7.558;2023-02-15T03:39:32;24.63;;;16.60;;
18947;SDS011;9607;51.600;7.558;2023-02-15T03:42:04;22.23;;;16.05;;
18947;SDS011;9607;51.600;7.558;2023-02-15T03:44:41;27.90;;;17.92;;
18947;SDS011;9607;51.600;7.558;2023-02-15T03:47:15;28.10;;;19.20;;
18947;SDS011;9607;51.600;7.558;2023-02-15T03:49:48;27.17;;;18.60;;
18947;SDS011;9607;51.600;7.558;2023-02-15T03:52:18;28.45;;;19.15;;
18947;SDS011;9607;51.600;7.558;2023-02-15T03:54:46;24.88;;;17.05;;
18947;SDS011;9607;51.600;7.558;2023-02-15T03:57:14;23.52;;;16.13;;
18947;SDS011;9607;51.600;7.558;2023-02-15T04:00:01;22.85;;;14.98;;
18947;SDS011;9607;51.600;7.558;2023-02-15T04:05:51;20.45;;;13.63;;
18947;SDS011;9607;51.600;7.558;2023-02-15T04:08:17;20.65;;;14.07;;
18947;SDS011;9607;51.600;7.558;2023-02-15T04:10:44;20.83;;;14.10;;
18947;SDS011;9607;51.600;7.558;2023-02-15T04:13:21;19.95;;;12.68;;
18947;SDS011;9607;51.600;7.558;2023-02-15T04:15:49;16.05;;;11.90;;
18947;SDS011;9607;51.600;7.558;2023-02-15T04:18:30;32.67;;;20.83;;
18947;SDS011;9607;51.600;7.558;2023-02-15T04:21:16;29.88;;;19.80;;
18947;SDS011;9607;51.600;7.558;2023-02-15T04:24:01;32.75;;;22.08;;
18947;SDS011;9607;51.600;7.558;2023-02-15T04:26:46;33.67;;;22.02;;
18947;SDS011;9607;51.600;7.558;2023-02-15T04:29:13;35.22;;;22.27;;
18947;SDS011;9607;51.600;7.558;2023-02-15T04:31:43;32.97;;;22.38;;
18947;SDS011;9607;51.600;7.558;2023-02-15T04:34:10;33.03;;;21.23;;
18947;SDS011;9607;51.600;7.558;2023-02-15T04:36:38;29.60;;;19.52;;
18947;SDS011;9607;51.600;7.558;2023-02-15T04:39:06;26.70;;;18.38;;
18947;SDS011;9607;51.600;7.558;2023-02-15T04:41:33;29.75;;;19.65;;
18947;SDS011;9607;51.600;7.558;2023-02-15T04:44:01;44.17;;;27.13;;
18947;SDS011;9607;51.600;7.558;2023-02-15T04:46:28;38.08;;;23.38;;
18947;SDS011;9607;51.600;7.558;2023-02-15T04:48:55;36.33;;;23.08;;
18947;SDS011;9607;51.600;7.558;2023-02-15T04:51:21;34.28;;;23.15;;
18947;SDS011;9607;51.600;7.558;2023-02-15T04:53:50;36.75;;;22.20;;
18947;SDS011;9607;51.600;7.558;2023-02-15T04:56:17;35.60;;;21.80;;
18947;SDS011;9607;51.600;7.558;2023-02-15T04:58:44;30.42;;;20.35;;
18947;SDS011;9607;51.600;7.558;2023-02-15T05:01:11;33.78;;;20.20;;
18947;SDS011;9607;51.600;7.558;2023-02-15T05:03:39;31.58;;;19.98;;
18947;SDS011;9607;51.600;7.558;2023-02-15T05:06:06;40.00;;;23.83;;
18947;SDS011;9607;51.600;7.558;2023-02-15T05:08:32;28.17;;;19.40;;
18947;SDS011;9607;51.600;7.558;2023-02-15T05:11:01;25.73;;;18.02;;
18947;SDS011;9607;51.600;7.558;2023-02-15T05:13:27;28.27;;;17.30;;
18947;SDS011;9607;51.600;7.558;2023-02-15T05:15:54;21.92;;;15.63;;
18947;SDS011;9607;51.600;7.558;2023-02-15T05:18:21;24.80;;;16.48;;
18947;SDS011;9607;51.600;7.558;2023-02-15T05:20:48;22.23;;;14.82;;
18947;SDS011;9607;51.600;7.558;2023-02-15T05:23:15;20.42;;;14.98;;
18947;SDS011;9607;51.600;7.558;2023-02-15T05:25:46;27.75;;;18.45;;
18947;SDS011;9607;51.600;7.558;2023-02-15T05:28:32;21.85;;;13.70;;
18947;SDS011;9607;51.600;7.558;2023-02-15T05:31:02;16.92;;;12.60;;
18947;SDS011;9607;51.600;7.558;2023-02-15T05:33:33;20.63;;;13.73;;
18947;SDS011;9607;51.600;7.558;2023-02-15T05:36:00;17.10;;;12.30;;
18947;SDS011;9607;51.600;7.558;2023-02-15T05:38:28;16.17;;;12.07;;
18947;SDS011;9607;51.600;7.558;2023-02-15T05:40:55;18.67;;;12.95;;
18947;SDS011;9607;51.600;7.558;2023-02-15T05:43:22;20.80;;;14.70;;
18947;SDS011;9607;51.600;7.558;2023-02-15T05:45:51;21.95;;;14.77;;
18947;SDS011;9607;51.600;7.558;2023-02-15T05:48:19;30.00;;;18.77;;
18947;SDS011;9607;51.600;7.558;2023-02-15T05:50:56;23.08;;;15.45;;
18947;SDS011;9607;51.600;7.558;2023-02-15T05:53:23;26.50;;;17.25;;
18947;SDS011;9607;51.600;7.558;2023-02-15T05:55:53;27.50;;;17.80;;
18947;SDS011;9607;51.600;7.558;2023-02-15T05:58:24;22.55;;;15.90;;
18947;SDS011;9607;51.600;7.558;2023-02-15T06:00:52;22.50;;;15.00;;
18947;SDS011;9607;51.600;7.558;2023-02-15T06:03:19;24.23;;;16.75;;
18947;SDS011;9607;51.600;7.558;2023-02-15T06:05:46;25.45;;;16.73;;
18947;SDS011;9607;51.600;7.558;2023-02-15T06:08:13;31.08;;;18.13;;
18947;SDS011;9607;51.600;7.558;2023-02-15T06:10:40;28.02;;;17.73;;
18947;SDS011;9607;51.600;7.558;2023-02-15T06:13:07;28.33;;;18.73;;
18947;SDS011;9607;51.600;7.558;2023-02-15T06:15:34;29.35;;;20.15;;
18947;SDS011;9607;51.600;7.558;2023-02-15T06:18:02;31.48;;;18.88;;
18947;SDS011;9607;51.600;7.558;2023-02-15T06:20:29;29.95;;;19.80;;
18947;SDS011;9607;51.600;7.558;2023-02-15T06:22:56;27.65;;;17.77;;
18947;SDS011;9607;51.600;7.558;2023-02-15T06:25:23;26.20;;;17.58;;
18947;SDS011;9607;51.600;7.558;2023-02-15T06:27:49;30.48;;;20.35;;
18947;SDS011;9607;51.600;7.558;2023-02-15T06:30:16;35.95;;;22.20;;
18947;SDS011;9607;51.600;7.558;2023-02-15T06:32:43;35.95;;;22.85;;
18947;SDS011;9607;51.600;7.558;2023-02-15T06:35:11;33.80;;;20.08;;
18947;SDS011;9607;51.600;7.558;2023-02-15T06:37:38;40.30;;;25.17;;
18947;SDS011;9607;51.600;7.558;2023-02-15T06:40:06;39.50;;;23.20;;
18947;SDS011;9607;51.600;7.558;2023-02-15T06:42:33;42.33;;;27.20;;
18947;SDS011;9607;51.600;7.558;2023-02-15T06:45:00;44.63;;;26.95;;
18947;SDS011;9607;51.600;7.558;2023-02-15T06:47:27;42.33;;;24.48;;
18947;SDS011;9607;51.600;7.558;2023-02-15T06:49:53;45.65;;;28.35;;
18947;SDS011;9607;51.600;7.558;2023-02-15T06:52:21;41.65;;;26.30;;
18947;SDS011;9607;51.600;7.558;2023-02-15T06:54:48;43.70;;;25.00;;
18947;SDS011;9607;51.600;7.558;2023-02-15T06:57:15;34.83;;;23.13;;
18947;SDS011;9607;51.600;7.558;2023-02-15T06:59:42;34.15;;;22.25;;
18947;SDS011;9607;51.600;7.558;2023-02-15T07:02:09;31.75;;;20.80;;
18947;SDS011;9607;51.600;7.558;2023-02-15T07:04:37;31.65;;;19.73;;
18947;SDS011;9607;51.600;7.558;2023-02-15T07:07:04;28.48;;;19.42;;
18947;SDS011;9607;51.600;7.558;2023-02-15T07:09:35;24.75;;;18.50;;
18947;SDS011;9607;51.600;7.558;2023-02-15T07:12:02;28.75;;;17.25;;
18947;SDS011;9607;51.600;7.558;2023-02-15T07:14:47;25.23;;;17.10;;
18947;SDS011;9607;51.600;7.558;2023-02-15T07:17:13;25.45;;;17.35;;
18947;SDS011;9607;51.600;7.558;2023-02-15T07:19:40;24.13;;;16.83;;
18947;SDS011;9607;51.600;7.558;2023-02-15T07:22:07;22.98;;;16.17;;
18947;SDS011;9607;51.600;7.558;2023-02-15T07:24:35;29.30;;;19.15;;
18947;SDS011;9607;51.600;7.558;2023-02-15T07:27:02;30.73;;;19.63;;
18947;SDS011;9607;51.600;7.558;2023-02-15T07:29:29;26.77;;;17.95;;
18947;SDS011;9607;51.600;7.558;2023-02-15T07:31:55;25.27;;;17.60;;
18947;SDS011;9607;51.600;7.558;2023-02-15T07:34:22;26.20;;;17.85;;
18947;SDS011;9607;51.600;7.558;2023-02-15T07:36:50;25.27;;;18.58;;
18947;SDS011;9607;51.600;7.558;2023-02-15T07:39:27;24.48;;;18.67;;
18947;SDS011;9607;51.600;7.558;2023-02-15T07:41:55;25.85;;;16.95;;
18947;SDS011;9607;51.600;7.558;2023-02-15T07:44:22;27.80;;;18.25;;
18947;SDS011;9607;51.600;7.558;2023-02-15T07:46:49;26.10;;;17.63;;
18947;SDS011;9607;51.600;7.558;2023-02-15T07:49:15;26.45;;;17.98;;
18947;SDS011;9607;51.600;7.558;2023-02-15T07:51:42;24.10;;;17.20;;
18947;SDS011;9607;51.600;7.558;2023-02-15T07:54:09;24.75;;;17.27;;
18947;SDS011;9607;51.600;7.558;2023-02-15T07:56:36;28.20;;;19.05;;
18947;SDS011;9607;51.600;7.558;2023-02-15T07:59:04;26.88;;;18.15;;
18947;SDS011;9607;51.600;7.558;2023-02-15T08:01:33;24.88;;;18.27;;
18947;SDS011;9607;51.600;7.558;2023-02-15T08:04:02;26.38;;;17.50;;
18947;SDS011;9607;51.600;7.558;2023-02-15T08:06:30;27.40;;;19.20;;
18947;SDS011;9607;51.600;7.558;2023-02-15T08:08:58;26.10;;;17.45;;
18947;SDS011;9607;51.600;7.558;2023-02-15T08:11:26;26.55;;;18.70;;
18947;SDS011;9607;51.600;7.558;2023-02-15T08:13:58;26.40;;;18.75;;
18947;SDS011;9607;51.600;7.558;2023-02-15T08:16:29;31.27;;;19.95;;
18947;SDS011;9607;51.600;7.558;2023-02-15T08:18:58;30.00;;;20.80;;
18947;SDS011;9607;51.600;7.558;2023-02-15T08:21:27;32.70;;;20.98;;
18947;SDS011;9607;51.600;7.558;2023-02-15T08:23:55;27.52;;;20.33;;
18947;SDS011;9607;51.600;7.558;2023-02-15T08:26:22;34.45;;;22.15;;
18947;SDS011;9607;51.600;7.558;2023-02-15T08:28:50;34.30;;;22.38;;
18947;SDS011;9607;51.600;7.558;2023-02-15T08:31:17;33.75;;;22.58;;
18947;SDS011;9607;51.600;7.558;2023-02-15T08:33:47;31.88;;;21.05;;
18947;SDS011;9607;51.600;7.558;2023-02-15T08:36:16;34.13;;;22.05;;
18947;SDS011;9607;51.600;7.558;2023-02-15T08:38:43;33.53;;;22.33;;
18947;SDS011;9607;51.600;7.558;2023-02-15T08:41:12;29.88;;;19.92;;
18947;SDS011;9607;51.600;7.558;2023-02-15T08:43:40;27.67;;;19.63;;
18947;SDS011;9607;51.600;7.558;2023-02-15T08:46:10;31.38;;;19.52;;
18947;SDS011;9607;51.600;7.558;2023-02-15T08:48:38;29.75;;;19.98;;
18947;SDS011;9607;51.600;7.558;2023-02-15T08:51:11;32.10;;;20.98;;
18947;SDS011;9607;51.600;7.558;2023-02-15T08:53:39;31.55;;;20.80;;
18947;SDS011;9607;51.600;7.558;2023-02-15T08:56:08;29.42;;;20.05;;
18947;SDS011;9607;51.600;7.558;2023-02-15T08:58:35;29.58;;;20.30;;
18947;SDS011;9607;51.600;7.558;2023-02-15T09:01:07;32.00;;;20.55;;
18947;SDS011;9607;51.600;7.558;2023-02-15T09:03:35;32.92;;;21.15;;
18947;SDS011;9607;51.600;7.558;2023-02-15T09:06:02;30.67;;;21.45;;
18947;SDS011;9607;51.600;7.558;2023-02-15T09:08:30;30.92;;;20.27;;
18947;SDS011;9607;51.600;7.558;2023-02-15T09:11:04;33.83;;;21.38;;
18947;SDS011;9607;51.600;7.558;2023-02-15T09:13:32;30.65;;;20.83;;
18947;SDS011;9607;51.600;7.558;2023-02-15T09:16:00;29.48;;;18.80;;
18947;SDS011;9607;51.600;7.558;2023-02-15T09:18:31;30.08;;;19.38;;
18947;SDS011;9607;51.600;7.558;2023-02-15T09:21:04;30.08;;;19.40;;
18947;SDS011;9607;51.600;7.558;2023-02-15T09:23:33;30.10;;;18.77;;
18947;SDS011;9607;51.600;7.558;2023-02-15T09:26:02;27.30;;;18.55;;
18947;SDS011;9607;51.600;7.558;2023-02-15T09:28:30;28.02;;;18.70;;
18947;SDS011;9607;51.600;7.558;2023-02-15T09:31:08;28.88;;;18.13;;
18947;SDS011;9607;51.600;7.558;2023-02-15T09:33:37;29.83;;;17.90;;
18947;SDS011;9607;51.600;7.558;2023-02-15T09:36:05;30.35;;;18.00;;
18947;SDS011;9607;51.600;7.558;2023-02-15T09:38:41;27.40;;;18.60;;
18947;SDS011;9607;51.600;7.558;2023-02-15T09:41:15;27.85;;;17.58;;
18947;SDS011;9607;51.600;7.558;2023-02-15T09:43:53;26.35;;;17.27;;
18947;SDS011;9607;51.600;7.558;2023-02-15T09:46:34;26.38;;;17.55;;
18947;SDS011;9607;51.600;7.558;2023-02-15T09:49:11;28.38;;;18.30;;
18947;SDS011;9607;51.600;7.558;2023-02-15T09:51:54;24.65;;;16.77;;
18947;SDS011;9607;51.600;7.558;2023-02-15T09:54:42;23.15;;;15.80;;
18947;SDS011;9607;51.600;7.558;2023-02-15T09:57:21;25.73;;;16.80;;
18947;SDS011;9607;51.600;7.558;2023-02-15T09:59:56;26.67;;;17.38;;
18947;SDS011;9607;51.600;7.558;2023-02-15T10:02:36;24.85;;;16.33;;
18947;SDS011;9607;51.600;7.558;2023-02-15T10:05:18;29.73;;;18.50;;
18947;SDS011;9607;51.600;7.558;2023-02-15T10:07:56;23.52;;;16.65;;
18947;SDS011;9607;51.600;7.558;2023-02-15T10:10:43;24.80;;;16.70;;
18947;SDS011;9607;51.600;7.558;2023-02-15T10:13:21;22.88;;;16.98;;
18947;SDS011;9607;51.600;7.558;2023-02-15T10:16:01;23.75;;;16.40;;
18947;SDS011;9607;51.600;7.558;2023-02-15T10:18:48;21.75;;;15.02;;
18947;SDS011;9607;51.600;7.558;2023-02-15T10:21:24;20.88;;;14.75;;
18947;SDS011;9607;51.600;7.558;2023-02-15T10:24:21;19.05;;;13.98;;
18947;SDS011;9607;51.600;7.558;2023-02-15T10:27:13;17.45;;;12.90;;
18947;SDS011;9607;51.600;7.558;2023-02-15T10:29:45;19.40;;;13.13;;
18947;SDS011;9607;51.600;7.558;2023-02-15T10:32:23;19.85;;;13.90;;
18947;SDS011;9607;51.600;7.558;2023-02-15T10:34:51;16.42;;;12.43;;
18947;SDS011;9607;51.600;7.558;2023-02-15T10:37:27;14.52;;;11.07;;
18947;SDS011;9607;51.600;7.558;2023-02-15T10:40:15;12.95;;;10.48;;
18947;SDS011;9607;51.600;7.558;2023-02-15T10:42:53;17.25;;;12.80;;
18947;SDS011;9607;51.600;7.558;2023-02-15T10:45:40;20.27;;;13.30;;
18947;SDS011;9607;51.600;7.558;2023-02-15T10:48:23;27.83;;;17.15;;
18947;SDS011;9607;51.600;7.558;2023-02-15T10:51:02;20.35;;;14.05;;
18947;SDS011;9607;51.600;7.558;2023-02-15T10:56:31;20.75;;;13.88;;
18947;SDS011;9607;51.600;7.558;2023-02-15T10:59:18;16.75;;;12.05;;
18947;SDS011;9607;51.600;7.558;2023-02-15T11:02:01;18.75;;;13.35;;
18947;SDS011;9607;51.600;7.558;2023-02-15T11:04:40;16.65;;;12.07;;
18947;SDS011;9607;51.600;7.558;2023-02-15T11:07:15;24.63;;;15.00;;
18947;SDS011;9607;51.600;7.558;2023-02-15T11:09:46;18.08;;;13.23;;
18947;SDS011;9607;51.600;7.558;2023-02-15T11:12:16;16.75;;;12.13;;
18947;SDS011;9607;51.600;7.558;2023-02-15T11:14:48;17.70;;;12.27;;
18947;SDS011;9607;51.600;7.558;2023-02-15T11:17:20;18.58;;;12.50;;
18947;SDS011;9607;51.600;7.558;2023-02-15T11:19:54;18.90;;;13.25;;
18947;SDS011;9607;51.600;7.558;2023-02-15T11:22:26;15.73;;;11.00;;
18947;SDS011;9607;51.600;7.558;2023-02-15T11:24:53;21.35;;;13.77;;
18947;SDS011;9607;51.600;7.558;2023-02-15T11:27:23;15.25;;;11.60;;
18947;SDS011;9607;51.600;7.558;2023-02-15T11:29:55;14.02;;;10.55;;
18947;SDS011;9607;51.600;7.558;2023-02-15T11:32:26;16.35;;;10.88;;
18947;SDS011;9607;51.600;7.558;2023-02-15T11:34:56;21.95;;;14.65;;
18947;SDS011;9607;51.600;7.558;2023-02-15T11:37:28;17.30;;;11.80;;
18947;SDS011;9607;51.600;7.558;2023-02-15T11:40:02;15.02;;;11.05;;
18947;SDS011;9607;51.600;7.558;2023-02-15T11:42:38;20.17;;;10.63;;
18947;SDS011;9607;51.600;7.558;2023-02-15T11:45:16;16.73;;;11.85;;
18947;SDS011;9607;51.600;7.558;2023-02-15T11:47:49;19.27;;;12.48;;
18947;SDS011;9607;51.600;7.558;2023-02-15T11:50:17;19.52;;;12.90;;
18947;SDS011;9607;51.600;7.558;2023-02-15T11:52:48;16.25;;;10.57;;
18947;SDS011;9607;51.600;7.558;2023-02-15T11:55:18;14.48;;;10.85;;
18947;SDS011;9607;51.600;7.558;2023-02-15T11:57:48;17.75;;;10.63;;
18947;SDS011;9607;51.600;7.558;2023-02-15T12:00:23;20.33;;;14.38;;
18947;SDS011;9607;51.600;7.558;2023-02-15T12:03:02;22.60;;;14.38;;
18947;SDS011;9607;51.600;7.558;2023-02-15T12:05:40;19.42;;;11.90;;
18947;SDS011;9607;51.600;7.558;2023-02-15T12:08:12;22.17;;;13.32;;
18947;SDS011;9607;51.600;7.558;2023-02-15T12:10:44;21.63;;;12.27;;
18947;SDS011;9607;51.600;7.558;2023-02-15T12:13:21;19.55;;;11.93;;
18947;SDS011;9607;51.600;7.558;2023-02-15T12:15:51;19.75;;;12.65;;
18947;SDS011;9607;51.600;7.558;2023-02-15T12:18:20;20.05;;;10.20;;
18947;SDS011;9607;51.600;7.558;2023-02-15T12:20:58;17.50;;;10.23;;
18947;SDS011;9607;51.600;7.558;2023-02-15T12:23:27;14.07;;;9.30;;
18947;SDS011;9607;51.600;7.558;2023-02-15T12:25:55;17.73;;;10.00;;
18947;SDS011;9607;51.600;7.558;2023-02-15T12:28:24;18.27;;;10.40;;
18947;SDS011;9607;51.600;7.558;2023-02-15T12:30:57;15.77;;;10.48;;
18947;SDS011;9607;51.600;7.558;2023-02-15T12:33:26;17.50;;;10.00;;
18947;SDS011;9607;51.600;7.558;2023-02-15T12:35:56;15.30;;;9.90;;
18947;SDS011;9607;51.600;7.558;2023-02-15T12:38:26;16.48;;;11.07;;
18947;SDS011;9607;51.600;7.558;2023-02-15T12:40:58;16.83;;;9.55;;
18947;SDS011;9607;51.600;7.558;2023-02-15T12:43:27;12.85;;;8.35;;
18947;SDS011;9607;51.600;7.558;2023-02-15T12:46:05;13.80;;;8.60;;
18947;SDS011;9607;51.600;7.558;2023-02-15T12:48:40;13.00;;;8.10;;
18947;SDS011;9607;51.600;7.558;2023-02-15T12:51:08;11.90;;;7.40;;
18947;SDS011;9607;51.600;7.558;2023-02-15T12:53:39;9.57;;;6.30;;
18947;SDS011;9607;51.600;7.558;2023-02-15T12:56:07;12.07;;;7.13;;
18947;SDS011;9607;51.600;7.558;2023-02-15T12:58:36;10.68;;;6.65;;
18947;SDS011;9607;51.600;7.558;2023-02-15T13:01:10;9.00;;;6.68;;
18947;SDS011;9607;51.600;7.558;2023-02-15T13:03:51;11.80;;;6.60;;
18947;SDS011;9607;51.600;7.558;2023-02-15T13:06:22;11.95;;;7.05;;
18947;SDS011;9607;51.600;7.558;2023-02-15T13:08:50;9.15;;;5.68;;
18947;SDS011;9607;51.600;7.558;2023-02-15T13:11:19;8.63;;;6.35;;
18947;SDS011;9607;51.600;7.558;2023-02-15T13:13:51;11.35;;;6.75;;
18947;SDS011;9607;51.600;7.558;2023-02-15T13:16:24;9.60;;;6.93;;
18947;SDS011;9607;51.600;7.558;2023-02-15T13:18:55;10.18;;;6.18;;
18947;SDS011;9607;51.600;7.558;2023-02-15T13:21:24;8.27;;;5.72;;
18947;SDS011;9607;51.600;7.558;2023-02-15T13:23:57;11.60;;;6.20;;
18947;SDS011;9607;51.600;7.558;2023-02-15T13:26:26;11.20;;;6.82;;
18947;SDS011;9607;51.600;7.558;2023-02-15T13:28:57;14.10;;;7.55;;
18947;SDS011;9607;51.600;7.558;2023-02-15T13:31:31;10.30;;;6.03;;
18947;SDS011;9607;51.600;7.558;2023-02-15T13:34:00;11.05;;;6.85;;
18947;SDS011;9607;51.600;7.558;2023-02-15T13:36:36;14.27;;;6.57;;
18947;SDS011;9607;51.600;7.558;2023-02-15T13:39:23;13.07;;;6.88;;
18947;SDS011;9607;51.600;7.558;2023-02-15T13:41:56;11.40;;;6.55;;
18947;SDS011;9607;51.600;7.558;2023-02-15T13:44:31;12.88;;;6.57;;
18947;SDS011;9607;51.600;7.558;2023-02-15T13:47:17;8.95;;;6.38;;
18947;SDS011;9607;51.600;7.558;2023-02-15T13:49:57;11.10;;;6.88;;
18947;SDS011;9607;51.600;7.558;2023-02-15T13:52:32;14.98;;;8.10;;
18947;SDS011;9607;51.600;7.558;2023-02-15T13:58:01;12.65;;;7.18;;
18947;SDS011;9607;51.600;7.558;2023-02-15T14:00:43;9.35;;;6.35;;
18947;SDS011;9607;51.600;7.558;2023-02-15T14:03:29;12.90;;;7.43;;
18947;SDS011;9607;51.600;7.558;2023-02-15T14:06:19;11.05;;;7.60;;
18947;SDS011;9607;51.600;7.558;2023-02-15T14:09:04;10.35;;;6.93;;
18947;SDS011;9607;51.600;7.558;2023-02-15T14:11:43;9.95;;;6.70;;
18947;SDS011;9607;51.600;7.558;2023-02-15T14:14:25;12.85;;;7.93;;
18947;SDS011;9607;51.600;7.558;2023-02-15T14:17:08;11.90;;;8.15;;
18947;SDS011;9607;51.600;7.558;2023-02-15T14:19:45;11.75;;;6.65;;
18947;SDS011;9607;51.600;7.558;2023-02-15T14:22:18;10.18;;;7.13;;
18947;SDS011;9607;51.600;7.558;2023-02-15T14:24:56;12.48;;;7.47;;
18947;SDS011;9607;51.600;7.558;2023-02-15T14:27:37;12.60;;;7.50;;
18947;SDS011;9607;51.600;7.558;2023-02-15T14:30:13;9.80;;;6.85;;
18947;SDS011;9607;51.600;7.558;2023-02-15T14:32:44;11.40;;;6.97;;
18947;SDS011;9607;51.600;7.558;2023-02-15T14:35:16;8.60;;;6.40;;
18947;SDS011;9607;51.600;7.558;2023-02-15T14:37:46;11.80;;;6.95;;
18947;SDS011;9607;51.600;7.558;2023-02-15T14:40:19;9.40;;;6.28;;
18947;SDS011;9607;51.600;7.558;2023-02-15T14:43:15;9.15;;;6.43;;
18947;SDS011;9607;51.600;7.558;2023-02-15T14:45:52;9.13;;;6.50;;
18947;SDS011;9607;51.600;7.558;2023-02-15T14:48:20;9.20;;;6.60;;
18947;SDS011;9607;51.600;7.558;2023-02-15T14:50:52;9.30;;;6.55;;
18947;SDS011;9607;51.600;7.558;2023-02-15T14:53:25;11.52;;;7.50;;
18947;SDS011;9607;51.600;7.558;2023-02-15T14:58:58;10.80;;;7.38;;
18947;SDS011;9607;51.600;7.558;2023-02-15T15:01:42;10.07;;;6.28;;
18947;SDS011;9607;51.600;7.558;2023-02-15T15:04:22;10.00;;;6.40;;
18947;SDS011;9607;51.600;7.558;2023-02-15T15:07:03;7.63;;;5.47;;
18947;SDS011;9607;51.600;7.558;2023-02-15T15:09:41;9.48;;;6.47;;
18947;SDS011;9607;51.600;7.558;2023-02-15T15:12:13;7.88;;;5.47;;
18947;SDS011;9607;51.600;7.558;2023-02-15T15:15:00;9.38;;;6.47;;
18947;SDS011;9607;51.600;7.558;2023-02-15T15:20:42;8.75;;;6.22;;
18947;SDS011;9607;51.600;7.558;2023-02-15T15:26:23;10.20;;;6.47;;
18947;SDS011;9607;51.600;7.558;2023-02-15T15:28:53;10.68;;;5.97;;